createdAt,value
2023-02-11T00:02:13.396Z,3.17
2023-02-11T00:04:39.769Z,3.20
2023-02-11T00:07:06.072Z,3.00
2023-02-11T00:09:32.412Z,3.30
2023-02-11T00:11:58.788Z,2.70
2023-02-11T00:14:25.219Z,3.92
2023-02-11T00:16:51.609Z,3.08
2023-02-11T00:19:18.022Z,3.25
2023-02-11T00:21:44.383Z,3.22
2023-02-11T00:24:10.769Z,3.43
2023-02-11T00:26:37.080Z,3.55
2023-02-11T00:29:04.799Z,2.92
2023-02-11T00:31:31.568Z,3.00
2023-02-11T00:33:57.983Z,2.60
2023-02-11T00:36:27.234Z,2.87
2023-02-11T00:38:54.526Z,2.75
2023-02-11T00:41:21.977Z,2.72
2023-02-11T00:43:48.671Z,2.55
2023-02-11T00:46:15.726Z,3.17
2023-02-11T00:48:42.578Z,3.43
2023-02-11T00:51:09.149Z,2.85
2023-02-11T00:53:36.107Z,3.33
2023-02-11T00:56:02.609Z,3.72
2023-02-11T00:58:29.498Z,3.58
2023-02-11T01:00:56.796Z,3.53
2023-02-11T01:03:23.236Z,3.35
2023-02-11T01:05:49.854Z,3.45
2023-02-11T01:08:16.603Z,3.60
2023-02-11T01:10:42.965Z,3.13
2023-02-11T01:13:09.765Z,3.30
2023-02-11T01:15:36.247Z,3.35
2023-02-11T01:18:04.816Z,3.85
2023-02-11T01:20:31.194Z,3.70
2023-02-11T01:22:57.512Z,3.00
2023-02-11T01:25:23.804Z,3.90
2023-02-11T01:27:50.136Z,3.30
2023-02-11T01:30:16.434Z,3.63
2023-02-11T01:32:42.790Z,3.47
2023-02-11T01:35:09.176Z,3.35
2023-02-11T01:37:35.945Z,3.47
2023-02-11T01:40:05.144Z,3.60
2023-02-11T01:42:33.084Z,3.85
2023-02-11T01:45:21.512Z,3.97
2023-02-11T01:47:47.887Z,3.72
2023-02-11T01:50:14.883Z,3.60
2023-02-11T01:52:41.910Z,3.88
2023-02-11T01:55:12.589Z,3.47
2023-02-11T01:57:42.903Z,4.13
2023-02-11T02:00:23.303Z,3.53
2023-02-11T02:03:11.337Z,4.07
2023-02-11T02:06:00.856Z,3.17
2023-02-11T02:08:35.107Z,4.07
2023-02-11T02:11:01.785Z,4.10
2023-02-11T02:13:32.103Z,4.07
2023-02-11T02:16:06.666Z,3.57
2023-02-11T02:18:39.864Z,3.70
2023-02-11T02:21:38.566Z,3.90
2023-02-11T02:24:17.976Z,4.30
2023-02-11T02:27:09.008Z,3.50
2023-02-11T02:30:02.397Z,3.47
2023-02-11T02:33:13.280Z,4.65
2023-02-11T02:36:05.452Z,3.90
2023-02-11T02:38:34.369Z,4.28
2023-02-11T02:41:13.896Z,3.85
2023-02-11T02:43:44.322Z,4.07
2023-02-11T02:46:13.576Z,4.13
2023-02-11T02:48:39.927Z,4.07
2023-02-11T02:51:25.300Z,4.03
2023-02-11T02:54:40.039Z,3.85
2023-02-11T02:57:40.273Z,3.47
2023-02-11T03:00:24.866Z,3.65
2023-02-11T03:03:17.383Z,3.40
2023-02-11T03:05:54.435Z,4.32
2023-02-11T03:08:53.080Z,3.97
2023-02-11T03:11:21.761Z,3.63
2023-02-11T03:13:49.585Z,3.90
2023-02-11T03:16:22.888Z,4.13
2023-02-11T03:19:18.269Z,4.30
2023-02-11T03:21:46.726Z,4.10
2023-02-11T03:24:34.812Z,3.67
2023-02-11T03:27:12.540Z,3.30
2023-02-11T03:30:05.183Z,3.72
2023-02-11T03:32:42.035Z,4.28
2023-02-11T03:35:31.744Z,4.18
2023-02-11T03:38:04.412Z,4.40
2023-02-11T03:40:38.013Z,3.88
2023-02-11T03:43:14.378Z,4.75
2023-02-11T03:45:41.041Z,4.07
2023-02-11T03:48:14.235Z,4.90
2023-02-11T03:50:42.137Z,4.20
2023-02-11T03:53:09.945Z,4.30
2023-02-11T03:55:39.790Z,4.82
2023-02-11T03:58:07.277Z,4.68
2023-02-11T04:00:39.552Z,5.03
2023-02-11T04:03:06.673Z,4.87
2023-02-11T04:05:33.269Z,4.15
2023-02-11T04:07:59.620Z,5.43
2023-02-11T04:10:26.002Z,4.80
2023-02-11T04:12:52.277Z,5.90
2023-02-11T04:15:19.017Z,4.67
2023-02-11T04:17:45.425Z,4.50
2023-02-11T04:20:12.493Z,4.80
2023-02-11T04:22:38.854Z,5.85
2023-02-11T04:25:06.224Z,5.65
2023-02-11T04:27:32.676Z,4.77
2023-02-11T04:29:59.042Z,4.65
2023-02-11T04:32:25.440Z,4.88
2023-02-11T04:34:51.757Z,5.28
2023-02-11T04:37:18.139Z,5.93
2023-02-11T04:39:44.443Z,6.33
2023-02-11T04:42:10.809Z,6.50
2023-02-11T04:44:37.116Z,6.55
2023-02-11T04:47:03.945Z,6.80
2023-02-11T04:49:30.694Z,7.35
2023-02-11T04:51:57.162Z,6.60
2023-02-11T04:54:23.519Z,6.75
2023-02-11T04:56:49.884Z,7.40
2023-02-11T04:59:16.647Z,6.95
2023-02-11T05:01:42.976Z,7.30
2023-02-11T05:04:09.381Z,7.43
2023-02-11T05:06:37.681Z,7.70
2023-02-11T05:09:03.976Z,7.90
2023-02-11T05:11:30.326Z,7.25
2023-02-11T05:13:56.825Z,7.60
2023-02-11T05:16:23.378Z,7.77
2023-02-11T05:18:52.152Z,8.18
2023-02-11T05:21:19.395Z,7.72
2023-02-11T05:23:45.938Z,7.80
2023-02-11T05:26:13.683Z,9.05
2023-02-11T05:28:40.346Z,7.27
2023-02-11T05:31:07.103Z,9.45
2023-02-11T05:33:33.757Z,8.45
2023-02-11T05:36:01.840Z,8.70
2023-02-11T05:38:28.127Z,9.27
2023-02-11T05:40:55.948Z,8.80
2023-02-11T05:43:22.391Z,9.05
2023-02-11T05:45:48.961Z,9.38
2023-02-11T05:48:15.515Z,9.35
2023-02-11T05:50:43.281Z,9.10
2023-02-11T05:53:09.678Z,9.37
2023-02-11T05:55:36.159Z,9.25
2023-02-11T05:58:02.475Z,8.85
2023-02-11T06:00:28.841Z,9.73
2023-02-11T06:02:55.295Z,9.27
2023-02-11T06:05:21.780Z,9.97
2023-02-11T06:07:48.148Z,9.35
2023-02-11T06:10:14.576Z,9.80
2023-02-11T06:12:41.186Z,11.35
2023-02-11T06:15:07.931Z,10.25
2023-02-11T06:17:34.326Z,10.70
2023-02-11T06:20:00.937Z,10.55
2023-02-11T06:22:27.468Z,11.52
2023-02-11T06:25:01.404Z,10.65
2023-02-11T06:27:29.152Z,10.63
2023-02-11T06:29:55.447Z,10.87
2023-02-11T06:32:42.183Z,11.15
2023-02-11T06:35:10.759Z,11.65
2023-02-11T06:37:38.285Z,11.23
2023-02-11T06:40:04.921Z,11.65
2023-02-11T06:42:31.344Z,12.03
2023-02-11T06:44:57.740Z,12.02
2023-02-11T06:47:24.043Z,12.38
2023-02-11T06:49:50.466Z,12.27
2023-02-11T06:52:16.821Z,12.90
2023-02-11T06:54:43.138Z,12.67
2023-02-11T06:57:09.515Z,12.93
2023-02-11T06:59:36.094Z,12.77
2023-02-11T07:02:02.501Z,13.57
2023-02-11T07:04:28.911Z,13.98
2023-02-11T07:06:55.397Z,12.97
2023-02-11T07:09:21.755Z,14.18
2023-02-11T07:11:48.108Z,13.40
2023-02-11T07:14:14.620Z,14.55
2023-02-11T07:16:41.038Z,14.18
2023-02-11T07:19:07.535Z,14.03
2023-02-11T07:21:33.875Z,14.25
2023-02-11T07:24:00.310Z,15.35
2023-02-11T07:26:28.501Z,14.05
2023-02-11T07:28:55.079Z,16.02
2023-02-11T07:31:25.202Z,14.77
2023-02-11T07:33:53.788Z,14.60
2023-02-11T07:36:21.148Z,15.00
2023-02-11T07:38:47.588Z,15.30
2023-02-11T07:41:17.077Z,17.13
2023-02-11T07:43:44.144Z,15.63
2023-02-11T07:46:17.014Z,16.00
2023-02-11T07:48:43.482Z,16.27
2023-02-11T07:51:13.788Z,16.98
2023-02-11T07:53:40.585Z,17.30
2023-02-11T07:56:09.234Z,17.27
2023-02-11T07:58:36.239Z,17.75
2023-02-11T08:01:08.157Z,18.00
2023-02-11T08:03:36.097Z,16.45
2023-02-11T08:06:08.136Z,17.23
2023-02-11T08:08:34.833Z,16.83
2023-02-11T08:11:09.524Z,18.13
2023-02-11T08:13:36.502Z,17.92
2023-02-11T08:16:04.065Z,18.27
2023-02-11T08:18:31.735Z,19.60
2023-02-11T08:21:04.958Z,16.47
2023-02-11T08:23:31.321Z,18.88
2023-02-11T08:26:05.646Z,18.38
2023-02-11T08:28:35.037Z,18.67
2023-02-11T08:31:13.924Z,18.10
2023-02-11T08:33:40.414Z,17.43
2023-02-11T08:36:19.515Z,18.98
2023-02-11T08:38:46.715Z,18.77
2023-02-11T08:41:14.037Z,17.85
2023-02-11T08:43:41.964Z,18.48
2023-02-11T08:46:09.891Z,18.13
2023-02-11T08:48:36.355Z,18.92
2023-02-11T08:51:07.365Z,19.45
2023-02-11T08:53:34.322Z,17.88
2023-02-11T08:56:00.750Z,19.10
2023-02-11T08:58:27.283Z,18.07
2023-02-11T09:00:54.105Z,18.40
2023-02-11T09:03:20.670Z,18.52
2023-02-11T09:05:49.088Z,18.23
2023-02-11T09:08:16.891Z,19.27
2023-02-11T09:10:43.411Z,19.20
2023-02-11T09:13:09.986Z,18.00
2023-02-11T09:15:36.621Z,18.85
2023-02-11T09:18:04.747Z,18.25
2023-02-11T09:20:31.460Z,18.65
2023-02-11T09:22:59.394Z,17.37
2023-02-11T09:25:26.055Z,18.25
2023-02-11T09:27:52.451Z,19.17
2023-02-11T09:30:18.992Z,18.42
2023-02-11T09:32:45.316Z,17.95
2023-02-11T09:35:11.711Z,19.00
2023-02-11T09:37:38.084Z,19.50
2023-02-11T09:40:05.080Z,19.77
2023-02-11T09:42:43.699Z,19.88
2023-02-11T09:45:15.982Z,18.35
2023-02-11T09:47:56.656Z,20.03
2023-02-11T09:50:29.579Z,18.33
2023-02-11T09:52:58.477Z,20.08
2023-02-11T09:55:28.584Z,18.88
2023-02-11T09:57:56.939Z,20.85
2023-02-11T10:00:29.065Z,20.03
2023-02-11T10:03:04.255Z,19.05
2023-02-11T10:05:49.101Z,19.02
2023-02-11T10:08:18.481Z,17.52
2023-02-11T10:11:30.591Z,20.27
2023-02-11T10:14:15.909Z,18.07
2023-02-11T10:16:53.751Z,19.48
2023-02-11T10:19:49.314Z,18.30
2023-02-11T10:22:24.181Z,18.58
2023-02-11T10:24:54.716Z,19.95
2023-02-11T10:27:28.374Z,19.63
2023-02-11T10:30:06.282Z,19.17
2023-02-11T10:32:40.065Z,18.58
2023-02-11T10:35:15.318Z,22.35
2023-02-11T10:37:44.247Z,21.27
2023-02-11T10:40:16.828Z,20.27
2023-02-11T10:42:48.131Z,17.63
2023-02-11T10:45:25.002Z,18.30
2023-02-11T10:47:51.448Z,17.42
2023-02-11T10:50:21.767Z,18.65
2023-02-11T10:52:48.573Z,17.07
2023-02-11T10:55:21.504Z,17.98
2023-02-11T10:58:00.544Z,16.63
2023-02-11T11:00:38.266Z,14.30
2023-02-11T11:03:16.864Z,15.27
2023-02-11T11:05:58.741Z,13.80
2023-02-11T11:08:45.730Z,14.63
2023-02-11T11:11:23.565Z,13.63
2023-02-11T11:13:52.622Z,11.88
2023-02-11T11:16:32.168Z,13.13
2023-02-11T11:19:07.557Z,12.90
2023-02-11T11:21:41.108Z,12.38
2023-02-11T11:24:18.123Z,12.60
2023-02-11T11:26:54.007Z,12.52
2023-02-11T11:29:30.749Z,13.38
2023-02-11T11:32:11.360Z,11.33
2023-02-11T11:34:41.435Z,12.85
2023-02-11T11:37:24.485Z,11.97
2023-02-11T11:40:01.423Z,12.43
2023-02-11T11:42:39.094Z,12.07
2023-02-11T11:45:17.630Z,11.20
2023-02-11T11:48:07.192Z,11.45
2023-02-11T11:50:45.794Z,12.63
2023-02-11T11:53:40.665Z,11.38
2023-02-11T11:56:14.030Z,12.43
2023-02-11T11:58:40.571Z,11.87
2023-02-11T12:01:36.856Z,11.60
2023-02-11T12:04:08.427Z,11.35
2023-02-11T12:06:56.679Z,11.48
2023-02-11T12:09:38.826Z,10.88
2023-02-11T12:12:09.101Z,10.87
2023-02-11T12:14:38.593Z,11.48
2023-02-11T12:17:26.606Z,10.77
2023-02-11T12:20:10.923Z,9.90
2023-02-11T12:22:55.681Z,10.52
2023-02-11T12:25:28.468Z,10.73
2023-02-11T12:28:03.736Z,9.80
2023-02-11T12:30:47.383Z,10.43
2023-02-11T12:33:25.266Z,10.73
2023-02-11T12:36:01.929Z,9.93
2023-02-11T12:38:49.386Z,9.47
2023-02-11T12:41:36.396Z,9.95
2023-02-11T12:44:03.179Z,9.13
2023-02-11T12:47:06.366Z,9.20
2023-02-11T12:49:41.837Z,9.80
2023-02-11T12:52:52.005Z,8.30
2023-02-11T12:55:27.881Z,9.02
2023-02-11T12:57:57.776Z,10.10
2023-02-11T13:00:31.229Z,8.57
2023-02-11T13:03:10.919Z,9.23
2023-02-11T13:05:42.902Z,8.87
2023-02-11T13:08:12.163Z,8.65
2023-02-11T13:10:43.092Z,8.65
2023-02-11T13:13:30.523Z,7.88
2023-02-11T13:15:59.613Z,8.40
2023-02-11T13:18:55.438Z,7.67
2023-02-11T13:21:33.577Z,8.25
2023-02-11T13:24:09.543Z,7.53
2023-02-11T13:26:51.040Z,6.82
2023-02-11T13:29:40.539Z,7.78
2023-02-11T13:32:14.578Z,6.47
2023-02-11T13:34:43.676Z,7.50
2023-02-11T13:37:37.129Z,7.47
2023-02-11T13:40:07.402Z,7.22
2023-02-11T13:42:54.513Z,7.28
2023-02-11T13:45:43.078Z,7.33
2023-02-11T13:48:29.212Z,7.55
2023-02-11T13:51:01.410Z,7.10
2023-02-11T13:53:29.335Z,6.38
2023-02-11T13:56:12.778Z,6.65
2023-02-11T13:58:50.399Z,7.77
2023-02-11T14:01:38.462Z,7.43
2023-02-11T14:04:22.377Z,7.63
2023-02-11T14:07:23.682Z,7.05
2023-02-11T14:09:50.143Z,6.95
2023-02-11T14:12:24.203Z,6.60
2023-02-11T14:15:04.802Z,5.88
2023-02-11T14:17:34.242Z,6.53
2023-02-11T14:20:02.764Z,6.93
2023-02-11T14:22:40.810Z,6.60
2023-02-11T14:25:20.122Z,6.93
2023-02-11T14:27:53.824Z,6.32
2023-02-11T14:30:43.666Z,6.53
2023-02-11T14:33:47.735Z,6.50
2023-02-11T14:36:26.859Z,5.90
2023-02-11T14:39:22.444Z,6.20
2023-02-11T14:41:49.463Z,6.43
2023-02-11T14:44:28.187Z,6.22
2023-02-11T14:46:55.532Z,6.00
2023-02-11T14:49:31.100Z,6.15
2023-02-11T14:52:07.278Z,5.93
2023-02-11T14:54:34.919Z,7.18
2023-02-11T14:57:16.099Z,6.07
2023-02-11T15:00:03.820Z,5.47
2023-02-11T15:02:35.153Z,6.10
2023-02-11T15:05:24.420Z,5.17
2023-02-11T15:07:57.480Z,5.80
2023-02-11T15:10:30.417Z,5.50
2023-02-11T15:12:58.382Z,5.80
2023-02-11T15:15:26.171Z,5.55
2023-02-11T15:17:53.371Z,5.77
2023-02-11T15:20:24.378Z,5.55
2023-02-11T15:22:56.958Z,5.32
2023-02-11T15:25:23.501Z,5.32
2023-02-11T15:27:52.900Z,5.47
2023-02-11T15:30:21.992Z,5.20
2023-02-11T15:32:59.230Z,6.05
2023-02-11T15:35:43.479Z,5.28
2023-02-11T15:38:13.131Z,5.90
2023-02-11T15:40:39.593Z,4.93
2023-02-11T15:43:08.957Z,5.20
2023-02-11T15:45:37.379Z,5.25
2023-02-11T15:48:16.514Z,5.18
2023-02-11T15:50:50.676Z,5.30
2023-02-11T15:53:33.385Z,5.22
2023-02-11T15:56:22.602Z,5.23
2023-02-11T15:58:50.026Z,4.80
2023-02-11T16:01:16.759Z,5.10
2023-02-11T16:03:43.981Z,4.40
2023-02-11T16:06:34.635Z,5.03
2023-02-11T16:09:08.696Z,4.90
2023-02-11T16:11:52.772Z,5.07
2023-02-11T16:14:28.096Z,6.00
2023-02-11T16:16:58.869Z,6.57
2023-02-11T16:19:26.833Z,5.32
2023-02-11T16:21:55.902Z,4.93
2023-02-11T16:24:26.947Z,5.35
2023-02-11T16:26:57.568Z,5.85
2023-02-11T16:29:30.303Z,6.40
2023-02-11T16:32:10.192Z,6.65
2023-02-11T16:34:36.965Z,5.20
2023-02-11T16:37:05.559Z,5.80
2023-02-11T16:39:32.212Z,5.20
2023-02-11T16:41:59.192Z,9.20
2023-02-11T16:44:25.847Z,5.95
2023-02-11T16:46:53.721Z,5.30
2023-02-11T16:49:27.650Z,8.98
2023-02-11T16:51:55.799Z,6.20
2023-02-11T16:54:23.202Z,5.68
2023-02-11T16:56:50.168Z,6.40
2023-02-11T16:59:16.585Z,5.47
2023-02-11T17:01:44.723Z,5.57
2023-02-11T17:04:19.741Z,6.20
2023-02-11T17:06:46.219Z,5.13
2023-02-11T17:09:17.709Z,5.55
2023-02-11T17:11:44.122Z,5.70
2023-02-11T17:14:10.525Z,5.85
2023-02-11T17:16:36.912Z,5.93
2023-02-11T17:19:03.344Z,6.05
2023-02-11T17:21:30.262Z,6.00
2023-02-11T17:23:57.377Z,5.60
2023-02-11T17:26:23.971Z,5.88
2023-02-11T17:28:50.521Z,6.30
2023-02-11T17:31:17.129Z,7.10
2023-02-11T17:33:43.652Z,6.50
2023-02-11T17:36:10.758Z,6.17
2023-02-11T17:38:37.940Z,6.75
2023-02-11T17:41:04.964Z,7.35
2023-02-11T17:43:31.744Z,6.50
2023-02-11T17:45:58.276Z,10.30
2023-02-11T17:48:25.043Z,6.60
2023-02-11T17:50:51.449Z,6.53
2023-02-11T17:53:17.780Z,6.90
2023-02-11T17:55:44.163Z,6.28
2023-02-11T17:58:10.537Z,7.10
2023-02-11T18:00:36.915Z,6.73
2023-02-11T18:03:03.390Z,6.28
2023-02-11T18:05:36.663Z,6.22
2023-02-11T18:08:05.208Z,6.05
2023-02-11T18:10:31.684Z,5.85
2023-02-11T18:12:58.045Z,5.63
2023-02-11T18:15:24.336Z,6.45
2023-02-11T18:17:50.672Z,6.60
2023-02-11T18:20:17.311Z,5.70
2023-02-11T18:22:44.092Z,6.07
2023-02-11T18:25:14.069Z,6.20
2023-02-11T18:27:40.779Z,6.20
2023-02-11T18:30:08.069Z,6.53
2023-02-11T18:32:34.404Z,6.65
2023-02-11T18:35:00.764Z,7.30
2023-02-11T18:37:27.263Z,7.07
2023-02-11T18:39:53.748Z,7.28
2023-02-11T18:42:20.157Z,7.50
2023-02-11T18:44:46.708Z,8.60
2023-02-11T18:47:13.146Z,7.47
2023-02-11T18:49:39.572Z,7.47
2023-02-11T18:52:06.056Z,7.43
2023-02-11T18:54:32.427Z,6.45
2023-02-11T18:56:58.785Z,6.82
2023-02-11T18:59:25.247Z,7.70
2023-02-11T19:01:51.567Z,7.47
2023-02-11T19:04:18.252Z,7.95
2023-02-11T19:06:48.311Z,8.45
2023-02-11T19:09:17.266Z,7.97
2023-02-11T19:11:44.205Z,8.15
2023-02-11T19:14:11.573Z,7.93
2023-02-11T19:16:39.350Z,8.07
2023-02-11T19:19:06.200Z,8.18
2023-02-11T19:21:33.676Z,8.32
2023-02-11T19:24:00.539Z,8.40
2023-02-11T19:26:27.871Z,7.20
2023-02-11T19:28:54.694Z,7.30
2023-02-11T19:31:21.848Z,8.07
2023-02-11T19:33:48.199Z,8.38
2023-02-11T19:36:14.546Z,8.35
2023-02-11T19:38:40.872Z,7.57
2023-02-11T19:41:07.257Z,7.93
2023-02-11T19:43:33.665Z,8.38
2023-02-11T19:46:04.634Z,7.90
2023-02-11T19:48:31.068Z,9.00
2023-02-11T19:50:57.588Z,8.10
2023-02-11T19:53:24.258Z,7.40
2023-02-11T19:55:50.865Z,7.28
2023-02-11T19:58:17.420Z,8.13
2023-02-11T20:00:43.816Z,7.75
2023-02-11T20:03:10.284Z,6.97
2023-02-11T20:05:39.715Z,7.30
2023-02-11T20:08:06.079Z,7.53
2023-02-11T20:10:32.605Z,7.60
2023-02-11T20:12:58.905Z,7.60
2023-02-11T20:15:25.259Z,7.03
2023-02-11T20:17:51.567Z,7.88
2023-02-11T20:20:18.346Z,11.35
2023-02-11T20:22:44.716Z,12.68
2023-02-11T20:25:11.146Z,10.70
2023-02-11T20:27:37.734Z,10.40
2023-02-11T20:30:05.223Z,7.95
2023-02-11T20:32:32.778Z,9.23
2023-02-11T20:34:59.303Z,8.85
2023-02-11T20:37:25.668Z,8.00
2023-02-11T20:39:52.085Z,7.80
2023-02-11T20:42:18.496Z,8.35
2023-02-11T20:44:44.939Z,8.05
2023-02-11T20:47:12.635Z,7.78
2023-02-11T20:49:39.012Z,7.85
2023-02-11T20:52:05.542Z,7.90
2023-02-11T20:54:31.896Z,8.02
2023-02-11T20:56:58.266Z,10.02
2023-02-11T20:59:25.034Z,10.63
2023-02-11T21:01:53.655Z,10.98
2023-02-11T21:04:26.235Z,8.77
2023-02-11T21:06:56.538Z,9.60
2023-02-11T21:09:25.867Z,10.80
2023-02-11T21:11:53.330Z,9.68
2023-02-11T21:14:21.284Z,9.88
2023-02-11T21:16:48.647Z,9.83
2023-02-11T21:19:16.155Z,10.73
2023-02-11T21:21:43.105Z,9.52
2023-02-11T21:24:10.316Z,9.27
2023-02-11T21:26:37.489Z,8.73
2023-02-11T21:29:06.518Z,8.70
2023-02-11T21:31:34.212Z,8.65
2023-02-11T21:34:00.852Z,9.38
2023-02-11T21:36:28.582Z,8.13
2023-02-11T21:38:54.864Z,8.38
2023-02-11T21:41:22.139Z,7.97
2023-02-11T21:43:50.008Z,8.88
2023-02-11T21:46:17.705Z,8.52
2023-02-11T21:48:44.173Z,8.23
2023-02-11T21:51:16.580Z,9.52
2023-02-11T21:53:43.045Z,8.20
2023-02-11T21:56:15.727Z,8.55
2023-02-11T21:58:42.763Z,9.02
2023-02-11T22:01:17.362Z,8.52
2023-02-11T22:03:45.173Z,8.82
2023-02-11T22:06:15.043Z,8.60
2023-02-11T22:08:41.576Z,8.20
2023-02-11T22:11:10.847Z,8.27
2023-02-11T22:13:37.238Z,9.00
2023-02-11T22:16:06.701Z,8.70
2023-02-11T22:18:33.318Z,9.87
2023-02-11T22:21:09.467Z,8.80
2023-02-11T22:23:36.965Z,7.93
2023-02-11T22:26:07.580Z,8.82
2023-02-11T22:28:34.581Z,9.77
2023-02-11T22:31:01.101Z,9.63
2023-02-11T22:33:28.103Z,10.00
2023-02-11T22:35:59.364Z,9.73
2023-02-11T22:38:26.088Z,9.68
2023-02-11T22:40:52.478Z,10.02
2023-02-11T22:43:18.835Z,10.00
2023-02-11T22:45:45.179Z,10.43
2023-02-11T22:48:11.816Z,9.85
2023-02-11T22:50:38.115Z,10.30
2023-02-11T22:53:04.461Z,10.27
2023-02-11T22:55:30.895Z,9.20
2023-02-11T22:57:57.249Z,9.90
2023-02-11T23:00:26.087Z,10.48
2023-02-11T23:02:52.419Z,9.68
2023-02-11T23:05:18.908Z,10.15
2023-02-11T23:07:45.243Z,10.00
2023-02-11T23:10:11.676Z,10.38
2023-02-11T23:12:37.976Z,11.20
2023-02-11T23:15:05.216Z,10.55
2023-02-11T23:17:31.742Z,10.20
2023-02-11T23:19:58.104Z,10.80
2023-02-11T23:22:24.521Z,10.23
2023-02-11T23:24:51.436Z,10.57
2023-02-11T23:27:17.817Z,10.80
2023-02-11T23:29:44.204Z,11.52
2023-02-11T23:32:11.318Z,9.70
2023-02-11T23:34:37.738Z,9.95
2023-02-11T23:37:04.189Z,10.23
2023-02-11T23:39:30.621Z,10.52
2023-02-11T23:41:57.008Z,10.20
2023-02-11T23:44:23.301Z,10.53
2023-02-11T23:46:49.683Z,10.95
2023-02-11T23:49:15.977Z,10.60
2023-02-11T23:51:42.471Z,10.30
2023-02-11T23:54:13.247Z,11.43
2023-02-11T23:56:39.774Z,10.57
2023-02-11T23:59:06.174Z,11.18
